sensor_id;sensor_type;location;lat;lon;timestamp;P1;durP1;ratioP1;P2;durP2;ratioP2
44772;SDS011;30492;52.088;5.122;2022-09-09T00:02:27;3.17;;;1.45;;
44772;SDS011;30492;52.088;5.122;2022-09-09T00:05:44;3.50;;;1.40;;
44772;SDS011;30492;52.088;5.122;2022-09-09T00:09:00;4.78;;;1.40;;
44772;SDS011;30492;52.088;5.122;2022-09-09T00:15:25;2.97;;;1.30;;
44772;SDS011;30492;52.088;5.122;2022-09-09T00:18:45;3.63;;;1.17;;
44772;SDS011;30492;52.088;5.122;2022-09-09T00:22:03;4.15;;;1.45;;
44772;SDS011;30492;52.088;5.122;2022-09-09T00:25:19;5.05;;;1.95;;
44772;SDS011;30492;52.088;5.122;2022-09-09T00:28:32;3.75;;;1.73;;
44772;SDS011;30492;52.088;5.122;2022-09-09T00:32:00;4.18;;;1.70;;
44772;SDS011;30492;52.088;5.122;2022-09-09T00:35:21;4.35;;;1.90;;
44772;SDS011;30492;52.088;5.122;2022-09-09T00:38:31;4.53;;;1.42;;
44772;SDS011;30492;52.088;5.122;2022-09-09T00:41:50;6.22;;;2.00;;
44772;SDS011;30492;52.088;5.122;2022-09-09T00:45:12;6.03;;;2.10;;
44772;SDS011;30492;52.088;5.122;2022-09-09T00:48:41;4.43;;;2.00;;
44772;SDS011;30492;52.088;5.122;2022-09-09T00:52:03;3.47;;;1.73;;
44772;SDS011;30492;52.088;5.122;2022-09-09T00:55:37;5.80;;;2.30;;
44772;SDS011;30492;52.088;5.122;2022-09-09T00:58:51;5.28;;;2.45;;
44772;SDS011;30492;52.088;5.122;2022-09-09T01:06:13;3.65;;;2.10;;
44772;SDS011;30492;52.088;5.122;2022-09-09T01:09:21;10.68;;;2.80;;
44772;SDS011;30492;52.088;5.122;2022-09-09T01:15:57;5.07;;;2.55;;
44772;SDS011;30492;52.088;5.122;2022-09-09T01:23:25;7.40;;;2.47;;
44772;SDS011;30492;52.088;5.122;2022-09-09T01:27:17;4.18;;;2.47;;
44772;SDS011;30492;52.088;5.122;2022-09-09T01:30:32;7.30;;;2.97;;
44772;SDS011;30492;52.088;5.122;2022-09-09T01:33:42;6.32;;;2.97;;
44772;SDS011;30492;52.088;5.122;2022-09-09T01:36:53;6.60;;;3.00;;
44772;SDS011;30492;52.088;5.122;2022-09-09T01:40:14;8.38;;;2.78;;
44772;SDS011;30492;52.088;5.122;2022-09-09T01:43:22;4.80;;;2.95;;
44772;SDS011;30492;52.088;5.122;2022-09-09T01:46:32;10.00;;;2.80;;
44772;SDS011;30492;52.088;5.122;2022-09-09T01:49:41;4.78;;;2.50;;
44772;SDS011;30492;52.088;5.122;2022-09-09T01:52:58;4.57;;;2.90;;
44772;SDS011;30492;52.088;5.122;2022-09-09T01:56:14;7.70;;;3.47;;
44772;SDS011;30492;52.088;5.122;2022-09-09T01:59:32;4.85;;;2.80;;
44772;SDS011;30492;52.088;5.122;2022-09-09T02:02:55;7.40;;;3.20;;
44772;SDS011;30492;52.088;5.122;2022-09-09T02:06:16;8.43;;;3.47;;
44772;SDS011;30492;52.088;5.122;2022-09-09T02:10:09;7.30;;;3.13;;
44772;SDS011;30492;52.088;5.122;2022-09-09T02:13:24;6.13;;;3.45;;
44772;SDS011;30492;52.088;5.122;2022-09-09T02:16:32;8.07;;;3.80;;
44772;SDS011;30492;52.088;5.122;2022-09-09T02:19:48;9.45;;;4.20;;
44772;SDS011;30492;52.088;5.122;2022-09-09T02:23:16;6.10;;;3.33;;
44772;SDS011;30492;52.088;5.122;2022-09-09T02:26:39;13.13;;;3.22;;
44772;SDS011;30492;52.088;5.122;2022-09-09T02:29:53;7.95;;;3.05;;
44772;SDS011;30492;52.088;5.122;2022-09-09T02:37:04;5.72;;;3.40;;
44772;SDS011;30492;52.088;5.122;2022-09-09T02:40:31;6.40;;;3.50;;
44772;SDS011;30492;52.088;5.122;2022-09-09T02:47:07;9.32;;;3.35;;
44772;SDS011;30492;52.088;5.122;2022-09-09T02:50:25;9.02;;;3.15;;
44772;SDS011;30492;52.088;5.122;2022-09-09T02:53:46;4.78;;;3.40;;
44772;SDS011;30492;52.088;5.122;2022-09-09T02:57:02;4.55;;;3.20;;
44772;SDS011;30492;52.088;5.122;2022-09-09T03:00:16;4.82;;;3.10;;
44772;SDS011;30492;52.088;5.122;2022-09-09T03:03:32;10.13;;;4.10;;
44772;SDS011;30492;52.088;5.122;2022-09-09T03:06:42;12.93;;;4.00;;
44772;SDS011;30492;52.088;5.122;2022-09-09T03:09:59;7.40;;;3.85;;
44772;SDS011;30492;52.088;5.122;2022-09-09T03:13:12;5.93;;;3.60;;
44772;SDS011;30492;52.088;5.122;2022-09-09T03:16:26;9.10;;;4.20;;
44772;SDS011;30492;52.088;5.122;2022-09-09T03:19:34;7.45;;;4.15;;
44772;SDS011;30492;52.088;5.122;2022-09-09T03:22:47;7.93;;;3.45;;
44772;SDS011;30492;52.088;5.122;2022-09-09T03:25:53;7.53;;;3.80;;
44772;SDS011;30492;52.088;5.122;2022-09-09T03:29:10;6.93;;;4.10;;
44772;SDS011;30492;52.088;5.122;2022-09-09T03:32:24;7.32;;;3.60;;
44772;SDS011;30492;52.088;5.122;2022-09-09T03:35:37;9.32;;;3.92;;
44772;SDS011;30492;52.088;5.122;2022-09-09T03:38:51;6.10;;;4.05;;
44772;SDS011;30492;52.088;5.122;2022-09-09T03:42:04;7.47;;;3.90;;
44772;SDS011;30492;52.088;5.122;2022-09-09T03:45:11;6.95;;;3.60;;
44772;SDS011;30492;52.088;5.122;2022-09-09T03:48:18;6.03;;;3.65;;
44772;SDS011;30492;52.088;5.122;2022-09-09T03:51:38;8.45;;;3.53;;
44772;SDS011;30492;52.088;5.122;2022-09-09T03:54:49;6.82;;;3.70;;
44772;SDS011;30492;52.088;5.122;2022-09-09T03:57:59;7.50;;;4.50;;
44772;SDS011;30492;52.088;5.122;2022-09-09T04:01:05;8.77;;;4.28;;
44772;SDS011;30492;52.088;5.122;2022-09-09T04:04:15;6.72;;;4.03;;
44772;SDS011;30492;52.088;5.122;2022-09-09T04:07:26;7.82;;;3.72;;
44772;SDS011;30492;52.088;5.122;2022-09-09T04:10:35;9.75;;;4.70;;
44772;SDS011;30492;52.088;5.122;2022-09-09T04:13:42;6.45;;;4.28;;
44772;SDS011;30492;52.088;5.122;2022-09-09T04:16:55;6.22;;;3.50;;
44772;SDS011;30492;52.088;5.122;2022-09-09T04:20:06;6.80;;;3.60;;
44772;SDS011;30492;52.088;5.122;2022-09-09T04:23:16;6.80;;;3.50;;
44772;SDS011;30492;52.088;5.122;2022-09-09T04:26:31;11.25;;;3.75;;
44772;SDS011;30492;52.088;5.122;2022-09-09T04:29:46;6.05;;;3.28;;
44772;SDS011;30492;52.088;5.122;2022-09-09T04:32:51;8.57;;;3.80;;
44772;SDS011;30492;52.088;5.122;2022-09-09T04:35:57;6.13;;;3.17;;
44772;SDS011;30492;52.088;5.122;2022-09-09T04:39:04;6.38;;;3.35;;
44772;SDS011;30492;52.088;5.122;2022-09-09T04:42:09;9.95;;;3.60;;
44772;SDS011;30492;52.088;5.122;2022-09-09T04:45:18;7.20;;;3.00;;
44772;SDS011;30492;52.088;5.122;2022-09-09T04:51:30;7.45;;;3.33;;
44772;SDS011;30492;52.088;5.122;2022-09-09T04:54:36;7.47;;;3.33;;
44772;SDS011;30492;52.088;5.122;2022-09-09T04:57:43;9.02;;;3.10;;
44772;SDS011;30492;52.088;5.122;2022-09-09T05:00:50;4.68;;;2.85;;
44772;SDS011;30492;52.088;5.122;2022-09-09T05:04:01;9.13;;;4.05;;
44772;SDS011;30492;52.088;5.122;2022-09-09T05:07:13;5.57;;;2.50;;
44772;SDS011;30492;52.088;5.122;2022-09-09T05:10:19;6.35;;;2.90;;
44772;SDS011;30492;52.088;5.122;2022-09-09T05:13:32;7.18;;;2.53;;
44772;SDS011;30492;52.088;5.122;2022-09-09T05:16:50;7.68;;;3.03;;
44772;SDS011;30492;52.088;5.122;2022-09-09T05:20:00;10.07;;;3.20;;
44772;SDS011;30492;52.088;5.122;2022-09-09T05:23:08;8.23;;;3.17;;
44772;SDS011;30492;52.088;5.122;2022-09-09T05:26:16;9.55;;;2.85;;
44772;SDS011;30492;52.088;5.122;2022-09-09T05:29:26;7.20;;;2.90;;
44772;SDS011;30492;52.088;5.122;2022-09-09T05:32:37;7.53;;;3.53;;
44772;SDS011;30492;52.088;5.122;2022-09-09T05:35:45;11.77;;;3.58;;
44772;SDS011;30492;52.088;5.122;2022-09-09T05:38:58;16.27;;;3.15;;
44772;SDS011;30492;52.088;5.122;2022-09-09T05:42:09;9.10;;;3.15;;
44772;SDS011;30492;52.088;5.122;2022-09-09T05:45:15;5.40;;;2.70;;
44772;SDS011;30492;52.088;5.122;2022-09-09T05:48:21;11.70;;;3.15;;
44772;SDS011;30492;52.088;5.122;2022-09-09T05:51:33;16.33;;;3.47;;
44772;SDS011;30492;52.088;5.122;2022-09-09T05:54:50;7.63;;;2.72;;
44772;SDS011;30492;52.088;5.122;2022-09-09T05:57:55;16.65;;;3.20;;
44772;SDS011;30492;52.088;5.122;2022-09-09T06:01:04;11.32;;;3.10;;
44772;SDS011;30492;52.088;5.122;2022-09-09T06:04:19;12.32;;;3.95;;
44772;SDS011;30492;52.088;5.122;2022-09-09T06:07:27;13.50;;;3.30;;
44772;SDS011;30492;52.088;5.122;2022-09-09T06:10:36;9.18;;;2.90;;
44772;SDS011;30492;52.088;5.122;2022-09-09T06:13:47;7.10;;;2.72;;
44772;SDS011;30492;52.088;5.122;2022-09-09T06:16:55;8.07;;;2.77;;
44772;SDS011;30492;52.088;5.122;2022-09-09T06:20:06;8.80;;;3.10;;
44772;SDS011;30492;52.088;5.122;2022-09-09T06:23:12;12.82;;;2.97;;
44772;SDS011;30492;52.088;5.122;2022-09-09T06:26:21;12.77;;;3.10;;
44772;SDS011;30492;52.088;5.122;2022-09-09T06:29:46;9.43;;;3.08;;
44772;SDS011;30492;52.088;5.122;2022-09-09T06:32:55;6.75;;;2.80;;
44772;SDS011;30492;52.088;5.122;2022-09-09T06:36:03;20.40;;;3.92;;
44772;SDS011;30492;52.088;5.122;2022-09-09T06:39:15;8.10;;;2.63;;
44772;SDS011;30492;52.088;5.122;2022-09-09T06:42:21;8.30;;;2.60;;
44772;SDS011;30492;52.088;5.122;2022-09-09T06:45:55;9.73;;;2.65;;
44772;SDS011;30492;52.088;5.122;2022-09-09T06:49:04;16.83;;;3.85;;
44772;SDS011;30492;52.088;5.122;2022-09-09T06:52:12;12.43;;;3.33;;
44772;SDS011;30492;52.088;5.122;2022-09-09T06:55:18;11.73;;;2.70;;
44772;SDS011;30492;52.088;5.122;2022-09-09T06:58:24;6.43;;;2.50;;
44772;SDS011;30492;52.088;5.122;2022-09-09T07:01:34;17.83;;;3.63;;
44772;SDS011;30492;52.088;5.122;2022-09-09T07:04:46;17.23;;;2.63;;
44772;SDS011;30492;52.088;5.122;2022-09-09T07:08:08;9.30;;;2.65;;
44772;SDS011;30492;52.088;5.122;2022-09-09T07:11:16;14.07;;;3.88;;
44772;SDS011;30492;52.088;5.122;2022-09-09T07:14:24;11.57;;;3.20;;
44772;SDS011;30492;52.088;5.122;2022-09-09T07:17:43;15.75;;;3.30;;
44772;SDS011;30492;52.088;5.122;2022-09-09T07:20:52;13.25;;;2.30;;
44772;SDS011;30492;52.088;5.122;2022-09-09T07:24:02;12.45;;;2.95;;
44772;SDS011;30492;52.088;5.122;2022-09-09T07:27:13;16.55;;;2.85;;
44772;SDS011;30492;52.088;5.122;2022-09-09T07:30:23;7.55;;;2.53;;
44772;SDS011;30492;52.088;5.122;2022-09-09T07:33:29;17.35;;;3.22;;
44772;SDS011;30492;52.088;5.122;2022-09-09T07:36:37;11.93;;;3.22;;
44772;SDS011;30492;52.088;5.122;2022-09-09T07:39:48;16.15;;;3.58;;
44772;SDS011;30492;52.088;5.122;2022-09-09T07:42:58;13.18;;;2.90;;
44772;SDS011;30492;52.088;5.122;2022-09-09T07:46:06;12.38;;;2.70;;
44772;SDS011;30492;52.088;5.122;2022-09-09T07:49:12;11.90;;;3.13;;
44772;SDS011;30492;52.088;5.122;2022-09-09T07:52:20;12.82;;;2.83;;
44772;SDS011;30492;52.088;5.122;2022-09-09T07:55:31;12.65;;;2.47;;
44772;SDS011;30492;52.088;5.122;2022-09-09T07:58:37;12.43;;;3.30;;
44772;SDS011;30492;52.088;5.122;2022-09-09T08:01:45;11.98;;;2.97;;
44772;SDS011;30492;52.088;5.122;2022-09-09T08:05:06;14.27;;;3.22;;
44772;SDS011;30492;52.088;5.122;2022-09-09T08:08:13;15.20;;;3.00;;
44772;SDS011;30492;52.088;5.122;2022-09-09T08:11:20;17.92;;;3.20;;
44772;SDS011;30492;52.088;5.122;2022-09-09T08:14:29;13.10;;;2.50;;
44772;SDS011;30492;52.088;5.122;2022-09-09T08:17:35;12.75;;;2.50;;
44772;SDS011;30492;52.088;5.122;2022-09-09T08:20:43;13.27;;;3.03;;
44772;SDS011;30492;52.088;5.122;2022-09-09T08:23:50;14.77;;;2.75;;
44772;SDS011;30492;52.088;5.122;2022-09-09T08:26:48;14.10;;;3.05;;
44772;SDS011;30492;52.088;5.122;2022-09-09T08:29:59;13.13;;;2.35;;
44772;SDS011;30492;52.088;5.122;2022-09-09T08:33:08;12.43;;;2.67;;
44772;SDS011;30492;52.088;5.122;2022-09-09T08:36:15;8.02;;;2.42;;
44772;SDS011;30492;52.088;5.122;2022-09-09T08:39:28;13.52;;;2.97;;
44772;SDS011;30492;52.088;5.122;2022-09-09T08:42:42;15.77;;;2.53;;
44772;SDS011;30492;52.088;5.122;2022-09-09T08:45:55;17.55;;;2.78;;
44772;SDS011;30492;52.088;5.122;2022-09-09T08:49:06;8.13;;;2.30;;
44772;SDS011;30492;52.088;5.122;2022-09-09T08:52:23;9.77;;;2.22;;
44772;SDS011;30492;52.088;5.122;2022-09-09T08:55:37;9.82;;;2.60;;
44772;SDS011;30492;52.088;5.122;2022-09-09T08:58:49;14.98;;;2.60;;
44772;SDS011;30492;52.088;5.122;2022-09-09T09:02:25;12.63;;;2.42;;
44772;SDS011;30492;52.088;5.122;2022-09-09T09:05:37;11.15;;;2.47;;
44772;SDS011;30492;52.088;5.122;2022-09-09T09:08:55;16.67;;;2.63;;
44772;SDS011;30492;52.088;5.122;2022-09-09T09:12:10;11.18;;;2.42;;
44772;SDS011;30492;52.088;5.122;2022-09-09T09:15:27;11.63;;;2.92;;
44772;SDS011;30492;52.088;5.122;2022-09-09T09:18:48;10.68;;;2.63;;
44772;SDS011;30492;52.088;5.122;2022-09-09T09:22:01;11.40;;;2.63;;
44772;SDS011;30492;52.088;5.122;2022-09-09T09:25:15;10.48;;;2.47;;
44772;SDS011;30492;52.088;5.122;2022-09-09T09:28:25;13.73;;;3.15;;
44772;SDS011;30492;52.088;5.122;2022-09-09T09:31:38;15.20;;;3.88;;
44772;SDS011;30492;52.088;5.122;2022-09-09T09:34:48;8.15;;;2.25;;
44772;SDS011;30492;52.088;5.122;2022-09-09T09:37:56;14.20;;;2.88;;
44772;SDS011;30492;52.088;5.122;2022-09-09T09:41:05;9.20;;;2.25;;
44772;SDS011;30492;52.088;5.122;2022-09-09T09:44:21;19.70;;;3.15;;
44772;SDS011;30492;52.088;5.122;2022-09-09T09:47:30;14.77;;;2.38;;
44772;SDS011;30492;52.088;5.122;2022-09-09T09:50:48;10.68;;;2.47;;
44772;SDS011;30492;52.088;5.122;2022-09-09T09:54:07;13.88;;;2.65;;
44772;SDS011;30492;52.088;5.122;2022-09-09T09:57:30;13.43;;;2.83;;
44772;SDS011;30492;52.088;5.122;2022-09-09T10:00:47;10.55;;;2.17;;
44772;SDS011;30492;52.088;5.122;2022-09-09T10:03:57;15.50;;;3.25;;
44772;SDS011;30492;52.088;5.122;2022-09-09T10:07:11;11.95;;;2.53;;
44772;SDS011;30492;52.088;5.122;2022-09-09T10:10:20;12.95;;;2.95;;
44772;SDS011;30492;52.088;5.122;2022-09-09T10:13:46;13.93;;;2.75;;
44772;SDS011;30492;52.088;5.122;2022-09-09T10:16:59;7.30;;;2.30;;
44772;SDS011;30492;52.088;5.122;2022-09-09T10:20:24;11.55;;;3.28;;
44772;SDS011;30492;52.088;5.122;2022-09-09T10:23:43;13.93;;;3.58;;
44772;SDS011;30492;52.088;5.122;2022-09-09T10:27:02;16.35;;;4.63;;
44772;SDS011;30492;52.088;5.122;2022-09-09T10:30:18;14.40;;;4.68;;
44772;SDS011;30492;52.088;5.122;2022-09-09T10:33:26;15.88;;;2.97;;
44772;SDS011;30492;52.088;5.122;2022-09-09T10:36:38;16.00;;;3.20;;
44772;SDS011;30492;52.088;5.122;2022-09-09T10:39:48;11.23;;;3.08;;
44772;SDS011;30492;52.088;5.122;2022-09-09T10:46:06;14.73;;;2.45;;
44772;SDS011;30492;52.088;5.122;2022-09-09T10:49:22;10.57;;;3.08;;
44772;SDS011;30492;52.088;5.122;2022-09-09T10:52:43;8.95;;;2.30;;
44772;SDS011;30492;52.088;5.122;2022-09-09T10:56:09;9.63;;;2.38;;
44772;SDS011;30492;52.088;5.122;2022-09-09T10:59:17;13.95;;;2.75;;
44772;SDS011;30492;52.088;5.122;2022-09-09T11:02:30;8.48;;;3.15;;
44772;SDS011;30492;52.088;5.122;2022-09-09T11:05:38;14.95;;;3.03;;
44772;SDS011;30492;52.088;5.122;2022-09-09T11:09:02;11.40;;;2.70;;
44772;SDS011;30492;52.088;5.122;2022-09-09T11:12:17;9.60;;;2.25;;
44772;SDS011;30492;52.088;5.122;2022-09-09T11:15:29;9.85;;;2.28;;
44772;SDS011;30492;52.088;5.122;2022-09-09T11:18:46;9.80;;;2.78;;
44772;SDS011;30492;52.088;5.122;2022-09-09T11:21:53;10.65;;;2.30;;
44772;SDS011;30492;52.088;5.122;2022-09-09T11:25:05;10.57;;;2.67;;
44772;SDS011;30492;52.088;5.122;2022-09-09T11:28:23;12.63;;;2.55;;
44772;SDS011;30492;52.088;5.122;2022-09-09T11:31:51;12.48;;;2.38;;
44772;SDS011;30492;52.088;5.122;2022-09-09T11:35:12;9.13;;;2.42;;
44772;SDS011;30492;52.088;5.122;2022-09-09T11:38:41;8.38;;;2.25;;
44772;SDS011;30492;52.088;5.122;2022-09-09T11:41:51;12.77;;;2.90;;
44772;SDS011;30492;52.088;5.122;2022-09-09T11:44:56;8.88;;;2.42;;
44772;SDS011;30492;52.088;5.122;2022-09-09T11:48:03;11.43;;;3.03;;
44772;SDS011;30492;52.088;5.122;2022-09-09T11:51:11;8.43;;;2.58;;
44772;SDS011;30492;52.088;5.122;2022-09-09T11:54:28;5.75;;;1.85;;
44772;SDS011;30492;52.088;5.122;2022-09-09T11:57:36;7.78;;;2.40;;
44772;SDS011;30492;52.088;5.122;2022-09-09T12:00:44;12.38;;;3.22;;
44772;SDS011;30492;52.088;5.122;2022-09-09T12:03:51;10.60;;;2.95;;
44772;SDS011;30492;52.088;5.122;2022-09-09T12:10:52;8.40;;;2.63;;
44772;SDS011;30492;52.088;5.122;2022-09-09T12:14:01;6.75;;;2.85;;
44772;SDS011;30492;52.088;5.122;2022-09-09T12:17:17;9.20;;;2.80;;
44772;SDS011;30492;52.088;5.122;2022-09-09T12:20:30;8.02;;;3.25;;
44772;SDS011;30492;52.088;5.122;2022-09-09T12:23:44;10.88;;;2.08;;
44772;SDS011;30492;52.088;5.122;2022-09-09T12:26:56;8.55;;;2.38;;
44772;SDS011;30492;52.088;5.122;2022-09-09T12:30:09;8.50;;;2.35;;
44772;SDS011;30492;52.088;5.122;2022-09-09T12:33:22;8.85;;;2.40;;
44772;SDS011;30492;52.088;5.122;2022-09-09T12:36:28;5.93;;;2.00;;
44772;SDS011;30492;52.088;5.122;2022-09-09T12:39:38;6.30;;;2.63;;
44772;SDS011;30492;52.088;5.122;2022-09-09T12:42:50;6.68;;;1.98;;
44772;SDS011;30492;52.088;5.122;2022-09-09T12:46:20;8.95;;;2.28;;
44772;SDS011;30492;52.088;5.122;2022-09-09T12:49:36;7.22;;;2.58;;
44772;SDS011;30492;52.088;5.122;2022-09-09T12:52:44;5.78;;;1.92;;
44772;SDS011;30492;52.088;5.122;2022-09-09T12:55:57;10.15;;;2.15;;
44772;SDS011;30492;52.088;5.122;2022-09-09T12:59:17;7.93;;;2.08;;
44772;SDS011;30492;52.088;5.122;2022-09-09T13:02:33;11.15;;;2.72;;
44772;SDS011;30492;52.088;5.122;2022-09-09T13:05:39;7.90;;;2.15;;
44772;SDS011;30492;52.088;5.122;2022-09-09T13:08:51;9.30;;;2.42;;
44772;SDS011;30492;52.088;5.122;2022-09-09T13:12:00;6.10;;;2.15;;
44772;SDS011;30492;52.088;5.122;2022-09-09T13:15:11;11.30;;;2.40;;
44772;SDS011;30492;52.088;5.122;2022-09-09T13:18:29;7.57;;;2.53;;
44772;SDS011;30492;52.088;5.122;2022-09-09T13:21:39;9.82;;;2.72;;
44772;SDS011;30492;52.088;5.122;2022-09-09T13:24:57;7.80;;;2.15;;
44772;SDS011;30492;52.088;5.122;2022-09-09T13:28:19;12.38;;;2.58;;
44772;SDS011;30492;52.088;5.122;2022-09-09T13:34:35;7.72;;;2.78;;
44772;SDS011;30492;52.088;5.122;2022-09-09T13:37:40;7.80;;;2.47;;
44772;SDS011;30492;52.088;5.122;2022-09-09T13:44:16;7.55;;;2.58;;
44772;SDS011;30492;52.088;5.122;2022-09-09T13:47:35;9.82;;;3.05;;
44772;SDS011;30492;52.088;5.122;2022-09-09T13:51:03;13.52;;;3.85;;
44772;SDS011;30492;52.088;5.122;2022-09-09T13:54:12;6.88;;;3.25;;
44772;SDS011;30492;52.088;5.122;2022-09-09T13:57:19;8.23;;;4.03;;
44772;SDS011;30492;52.088;5.122;2022-09-09T14:00:32;9.75;;;2.97;;
44772;SDS011;30492;52.088;5.122;2022-09-09T14:03:39;11.05;;;3.83;;
44772;SDS011;30492;52.088;5.122;2022-09-09T14:06:45;8.52;;;3.90;;
44772;SDS011;30492;52.088;5.122;2022-09-09T14:09:54;7.45;;;3.10;;
44772;SDS011;30492;52.088;5.122;2022-09-09T14:13:01;10.48;;;4.00;;
44772;SDS011;30492;52.088;5.122;2022-09-09T14:16:10;9.40;;;3.75;;
44772;SDS011;30492;52.088;5.122;2022-09-09T14:19:15;10.93;;;3.88;;
44772;SDS011;30492;52.088;5.122;2022-09-09T14:22:27;9.35;;;4.50;;
44772;SDS011;30492;52.088;5.122;2022-09-09T14:25:33;11.35;;;4.43;;
44772;SDS011;30492;52.088;5.122;2022-09-09T14:28:39;8.95;;;4.65;;
44772;SDS011;30492;52.088;5.122;2022-09-09T14:31:44;18.50;;;4.40;;
44772;SDS011;30492;52.088;5.122;2022-09-09T14:34:51;11.13;;;4.72;;
44772;SDS011;30492;52.088;5.122;2022-09-09T14:41:18;8.48;;;3.10;;
44772;SDS011;30492;52.088;5.122;2022-09-09T14:44:25;11.07;;;4.03;;
44772;SDS011;30492;52.088;5.122;2022-09-09T14:47:37;7.15;;;2.50;;
44772;SDS011;30492;52.088;5.122;2022-09-09T14:50:42;8.52;;;2.30;;
44772;SDS011;30492;52.088;5.122;2022-09-09T14:53:56;5.60;;;1.40;;
44772;SDS011;30492;52.088;5.122;2022-09-09T14:57:03;3.88;;;1.65;;
44772;SDS011;30492;52.088;5.122;2022-09-09T15:00:08;4.20;;;1.90;;
44772;SDS011;30492;52.088;5.122;2022-09-09T15:03:18;5.43;;;1.88;;
44772;SDS011;30492;52.088;5.122;2022-09-09T15:06:20;9.25;;;1.65;;
44772;SDS011;30492;52.088;5.122;2022-09-09T15:09:27;8.02;;;2.70;;
44772;SDS011;30492;52.088;5.122;2022-09-09T15:12:32;9.23;;;1.90;;
44772;SDS011;30492;52.088;5.122;2022-09-09T15:15:38;6.68;;;2.30;;
44772;SDS011;30492;52.088;5.122;2022-09-09T15:18:45;5.43;;;1.95;;
44772;SDS011;30492;52.088;5.122;2022-09-09T15:21:53;9.30;;;2.67;;
44772;SDS011;30492;52.088;5.122;2022-09-09T15:25:05;6.03;;;1.75;;
44772;SDS011;30492;52.088;5.122;2022-09-09T15:28:19;8.10;;;1.80;;
44772;SDS011;30492;52.088;5.122;2022-09-09T15:31:28;5.90;;;1.85;;
44772;SDS011;30492;52.088;5.122;2022-09-09T15:34:37;3.25;;;1.77;;
44772;SDS011;30492;52.088;5.122;2022-09-09T15:37:42;8.65;;;2.05;;
44772;SDS011;30492;52.088;5.122;2022-09-09T15:40:54;5.05;;;2.00;;
44772;SDS011;30492;52.088;5.122;2022-09-09T15:44:00;3.83;;;1.45;;
44772;SDS011;30492;52.088;5.122;2022-09-09T15:47:10;8.93;;;2.45;;
44772;SDS011;30492;52.088;5.122;2022-09-09T15:50:17;6.40;;;1.88;;
44772;SDS011;30492;52.088;5.122;2022-09-09T15:53:22;5.80;;;1.48;;
44772;SDS011;30492;52.088;5.122;2022-09-09T15:56:33;5.25;;;1.73;;
44772;SDS011;30492;52.088;5.122;2022-09-09T15:59:38;8.18;;;2.10;;
44772;SDS011;30492;52.088;5.122;2022-09-09T16:02:57;6.90;;;1.90;;
44772;SDS011;30492;52.088;5.122;2022-09-09T16:06:03;8.48;;;1.60;;
44772;SDS011;30492;52.088;5.122;2022-09-09T16:09:11;3.88;;;1.40;;
44772;SDS011;30492;52.088;5.122;2022-09-09T16:12:22;4.75;;;1.65;;
44772;SDS011;30492;52.088;5.122;2022-09-09T16:15:28;6.65;;;2.47;;
44772;SDS011;30492;52.088;5.122;2022-09-09T16:18:35;6.05;;;1.60;;
44772;SDS011;30492;52.088;5.122;2022-09-09T16:21:42;9.13;;;2.70;;
44772;SDS011;30492;52.088;5.122;2022-09-09T16:24:52;8.85;;;3.33;;
44772;SDS011;30492;52.088;5.122;2022-09-09T16:28:00;11.18;;;3.60;;
44772;SDS011;30492;52.088;5.122;2022-09-09T16:31:05;11.10;;;2.92;;
44772;SDS011;30492;52.088;5.122;2022-09-09T16:34:11;11.82;;;2.97;;
44772;SDS011;30492;52.088;5.122;2022-09-09T16:37:17;15.30;;;3.20;;
44772;SDS011;30492;52.088;5.122;2022-09-09T16:40:29;12.88;;;2.95;;
44772;SDS011;30492;52.088;5.122;2022-09-09T16:43:36;9.30;;;3.10;;
44772;SDS011;30492;52.088;5.122;2022-09-09T16:46:46;12.95;;;3.30;;
44772;SDS011;30492;52.088;5.122;2022-09-09T16:49:55;8.98;;;3.30;;
44772;SDS011;30492;52.088;5.122;2022-09-09T16:53:04;11.80;;;3.75;;
44772;SDS011;30492;52.088;5.122;2022-09-09T16:56:12;9.63;;;3.60;;
44772;SDS011;30492;52.088;5.122;2022-09-09T16:59:21;5.85;;;3.05;;
44772;SDS011;30492;52.088;5.122;2022-09-09T17:02:26;12.17;;;3.67;;
44772;SDS011;30492;52.088;5.122;2022-09-09T17:05:32;10.98;;;3.33;;
44772;SDS011;30492;52.088;5.122;2022-09-09T17:08:37;9.32;;;3.83;;
44772;SDS011;30492;52.088;5.122;2022-09-09T17:11:45;11.70;;;3.45;;
44772;SDS011;30492;52.088;5.122;2022-09-09T17:18:18;8.27;;;3.45;;
44772;SDS011;30492;52.088;5.122;2022-09-09T17:21:25;5.43;;;2.70;;
44772;SDS011;30492;52.088;5.122;2022-09-09T17:24:34;9.95;;;2.67;;
44772;SDS011;30492;52.088;5.122;2022-09-09T17:27:43;10.35;;;4.22;;
44772;SDS011;30492;52.088;5.122;2022-09-09T17:30:50;13.70;;;3.60;;
44772;SDS011;30492;52.088;5.122;2022-09-09T17:33:59;11.57;;;3.40;;
44772;SDS011;30492;52.088;5.122;2022-09-09T17:37:04;7.90;;;3.05;;
44772;SDS011;30492;52.088;5.122;2022-09-09T17:40:14;6.85;;;3.00;;
44772;SDS011;30492;52.088;5.122;2022-09-09T17:43:22;7.03;;;2.90;;
44772;SDS011;30492;52.088;5.122;2022-09-09T17:46:28;9.45;;;2.47;;
44772;SDS011;30492;52.088;5.122;2022-09-09T17:49:37;10.38;;;2.75;;
44772;SDS011;30492;52.088;5.122;2022-09-09T17:52:42;10.80;;;2.65;;
44772;SDS011;30492;52.088;5.122;2022-09-09T17:55:48;8.40;;;2.95;;
44772;SDS011;30492;52.088;5.122;2022-09-09T17:58:54;11.10;;;2.58;;
44772;SDS011;30492;52.088;5.122;2022-09-09T18:02:01;12.52;;;2.88;;
44772;SDS011;30492;52.088;5.122;2022-09-09T18:05:09;10.73;;;2.95;;
44772;SDS011;30492;52.088;5.122;2022-09-09T18:08:15;8.65;;;2.92;;
44772;SDS011;30492;52.088;5.122;2022-09-09T18:11:21;9.50;;;2.72;;
44772;SDS011;30492;52.088;5.122;2022-09-09T18:14:32;8.27;;;2.97;;
44772;SDS011;30492;52.088;5.122;2022-09-09T18:17:51;9.90;;;3.03;;
44772;SDS011;30492;52.088;5.122;2022-09-09T18:20:57;9.27;;;2.95;;
44772;SDS011;30492;52.088;5.122;2022-09-09T18:24:13;6.22;;;2.65;;
44772;SDS011;30492;52.088;5.122;2022-09-09T18:27:20;9.98;;;2.85;;
44772;SDS011;30492;52.088;5.122;2022-09-09T18:30:26;7.25;;;3.45;;
44772;SDS011;30492;52.088;5.122;2022-09-09T18:33:36;9.47;;;3.27;;
44772;SDS011;30492;52.088;5.122;2022-09-09T18:36:46;5.70;;;2.30;;
44772;SDS011;30492;52.088;5.122;2022-09-09T18:39:57;8.93;;;3.30;;
44772;SDS011;30492;52.088;5.122;2022-09-09T18:43:05;11.90;;;3.88;;
44772;SDS011;30492;52.088;5.122;2022-09-09T18:46:13;10.10;;;3.63;;
44772;SDS011;30492;52.088;5.122;2022-09-09T18:49:21;13.23;;;4.32;;
44772;SDS011;30492;52.088;5.122;2022-09-09T18:52:31;10.20;;;3.75;;
44772;SDS011;30492;52.088;5.122;2022-09-09T18:55:58;11.88;;;3.88;;
44772;SDS011;30492;52.088;5.122;2022-09-09T18:59:07;11.13;;;3.50;;
44772;SDS011;30492;52.088;5.122;2022-09-09T19:02:18;16.67;;;4.30;;
44772;SDS011;30492;52.088;5.122;2022-09-09T19:05:26;13.70;;;3.95;;
44772;SDS011;30492;52.088;5.122;2022-09-09T19:08:35;9.30;;;3.63;;
44772;SDS011;30492;52.088;5.122;2022-09-09T19:11:44;7.30;;;3.80;;
44772;SDS011;30492;52.088;5.122;2022-09-09T19:14:50;14.73;;;3.63;;
44772;SDS011;30492;52.088;5.122;2022-09-09T19:17:59;9.75;;;4.00;;
44772;SDS011;30492;52.088;5.122;2022-09-09T19:21:24;9.98;;;3.70;;
44772;SDS011;30492;52.088;5.122;2022-09-09T19:24:31;6.55;;;3.90;;
44772;SDS011;30492;52.088;5.122;2022-09-09T19:30:49;7.23;;;3.93;;
44772;SDS011;30492;52.088;5.122;2022-09-09T19:33:56;15.32;;;4.43;;
44772;SDS011;30492;52.088;5.122;2022-09-09T19:37:10;10.82;;;3.88;;
44772;SDS011;30492;52.088;5.122;2022-09-09T19:40:15;8.75;;;3.45;;
44772;SDS011;30492;52.088;5.122;2022-09-09T19:43:23;10.95;;;4.07;;
44772;SDS011;30492;52.088;5.122;2022-09-09T19:46:28;7.32;;;3.53;;
44772;SDS011;30492;52.088;5.122;2022-09-09T19:49:45;10.38;;;3.50;;
44772;SDS011;30492;52.088;5.122;2022-09-09T19:52:53;7.10;;;3.75;;
44772;SDS011;30492;52.088;5.122;2022-09-09T19:55:59;9.02;;;4.65;;
44772;SDS011;30492;52.088;5.122;2022-09-09T20:02:20;13.13;;;3.70;;